ADDS METAR Data INFO
IDs: Format: Raw Decoded Include TAF

Data at: 1149 UTC 17 Dec 2017

METAR for:KRYW (Lago Vista/Allen Arp, TX, US)
Text:KRYW 171135Z AUTO 19003KT 2SM BR OVC003 08/08 A3003 RMK AO2 T00820080
Temperature: 8.2°C ( 47°F)
Dewpoint: 8.0°C ( 46°F) [RH = 99%]
Pressure (altimeter):30.03 inches Hg (1017.0 mb)
Winds:from the S (190 degrees) at 3 MPH (3 knots; 1.5 m/s)
Visibility: 2.00 sm ( 3.22 km)
Ceiling:300 feet AGL
Clouds: overcast cloud deck at 300 feet AGL
Weather:BR (mist)
QC Flag:automated observation with no human augmentation